Time,TemperatureF,DewpointF,PressureIn,WindDirection,WindDirectionDegrees,WindSpeedMPH,WindSpeedGustMPH,Humidity,HourlyPrecipIn,Conditions,Clouds,dailyrainin,SoftwareType,DateUTC
2013-07-13 00:01:00,65.0,61.0,30.08,North,0,0.0,0.0,88,80.66,,,-99.99,,2013-07-13 05:01:00,
2013-07-13 00:11:00,64.0,61.0,30.08,North,0,0.0,0.0,89,80.66,,,-99.99,,2013-07-13 05:11:00,
2013-07-13 00:22:00,64.0,61.0,30.08,North,0,0.0,0.0,89,80.66,,,-99.99,,2013-07-13 05:22:00,
2013-07-13 00:32:00,64.0,61.0,30.08,North,0,0.0,0.0,91,80.66,,,-99.99,,2013-07-13 05:32:00,
2013-07-13 00:42:00,63.0,61.0,30.07,North,0,0.0,0.0,92,80.66,,,-99.99,,2013-07-13 05:42:00,
2013-07-13 00:52:00,63.0,61.0,30.08,North,0,0.0,0.0,92,80.66,,,-99.99,,2013-07-13 05:52:00,
2013-07-13 01:01:00,63.0,61.0,30.08,North,0,0.0,0.0,93,80.66,,,-99.99,,2013-07-13 06:01:00,
2013-07-13 01:11:00,63.0,61.0,30.08,North,0,0.0,0.0,94,80.66,,,-99.99,,2013-07-13 06:11:00,
2013-07-13 01:22:00,62.0,61.0,30.08,North,0,0.0,0.0,95,80.66,,,-99.99,,2013-07-13 06:22:00,
2013-07-13 01:32:00,62.0,61.0,30.08,North,0,0.0,0.0,95,80.66,,,-99.99,,2013-07-13 06:32:00,
2013-07-13 01:43:00,62.0,61.0,30.07,North,0,0.0,0.0,96,80.66,,,-99.99,,2013-07-13 06:43:00,
2013-07-13 01:52:00,62.0,61.0,30.07,North,0,0.0,0.0,96,80.66,,,-99.99,,2013-07-13 06:52:00,
2013-07-13 02:02:00,62.0,61.0,30.07,North,0,0.0,0.0,97,80.66,,,-99.99,,2013-07-13 07:02:00,
2013-07-13 02:11:00,62.0,61.0,30.08,North,0,0.0,0.0,97,80.66,,,-99.99,,2013-07-13 07:11:00,
2013-07-13 02:22:00,62.0,61.0,30.07,North,0,0.0,0.0,97,80.66,,,-99.99,,2013-07-13 07:22:00,
2013-07-13 02:33:00,62.0,61.0,30.07,North,0,0.0,0.0,97,80.66,,,-99.99,,2013-07-13 07:33:00,
2013-07-13 02:44:00,62.0,61.0,30.07,North,0,0.0,0.0,97,80.66,,,-99.99,,2013-07-13 07:44:00,
2013-07-13 02:53:00,62.0,61.0,30.08,North,0,0.0,0.0,97,80.66,,,-99.99,,2013-07-13 07:53:00,
2013-07-13 03:02:00,63.0,62.0,30.08,North,0,0.0,0.0,96,80.66,,,-99.99,,2013-07-13 08:02:00,
2013-07-13 03:11:00,63.0,62.0,30.09,North,0,0.0,0.0,96,80.66,,,-99.99,,2013-07-13 08:11:00,
2013-07-13 03:22:00,62.0,61.0,30.09,North,0,0.0,0.0,95,80.66,,,-99.99,,2013-07-13 08:22:00,
2013-07-13 03:33:00,62.0,61.0,30.09,North,0,0.0,0.0,95,80.66,,,-99.99,,2013-07-13 08:33:00,
2013-07-13 03:43:00,62.0,61.0,30.09,North,0,0.0,0.0,96,80.66,,,-99.99,,2013-07-13 08:43:00,
2013-07-13 03:52:00,62.0,61.0,30.09,North,0,0.0,0.0,96,80.66,,,-99.99,,2013-07-13 08:52:00,
2013-07-13 04:02:00,61.0,60.0,30.09,North,0,0.0,0.0,96,80.66,,,-99.99,,2013-07-13 09:02:00,
2013-07-13 04:11:00,61.0,60.0,30.09,North,0,0.0,0.0,96,80.66,,,-99.99,,2013-07-13 09:11:00,
2013-07-13 04:22:00,61.0,60.0,30.09,North,0,0.0,0.0,96,80.66,,,-99.99,,2013-07-13 09:22:00,
2013-07-13 04:33:00,60.0,59.0,30.09,North,0,0.0,0.0,97,80.66,,,-99.99,,2013-07-13 09:33:00,
2013-07-13 04:43:00,60.0,59.0,30.08,North,0,0.0,0.0,97,80.66,,,-99.99,,2013-07-13 09:43:00,
2013-07-13 04:53:00,60.0,59.0,30.09,North,0,0.0,0.0,97,80.66,,,-99.99,,2013-07-13 09:53:00,
2013-07-13 05:01:00,60.0,59.0,30.08,North,0,0.0,0.0,98,80.66,,,-99.99,,2013-07-13 10:01:00,
2013-07-13 05:11:00,60.0,59.0,30.08,North,0,0.0,0.0,98,80.66,,,-99.99,,2013-07-13 10:11:00,
2013-07-13 05:22:00,60.0,59.0,30.08,North,0,0.0,0.0,98,80.66,,,-99.99,,2013-07-13 10:22:00,
2013-07-13 05:32:00,60.0,59.0,30.09,North,0,0.0,0.0,98,80.66,,,-99.99,,2013-07-13 10:32:00,
2013-07-13 05:43:00,59.0,58.0,30.09,North,0,0.0,0.0,98,80.66,,,-99.99,,2013-07-13 10:43:00,
2013-07-13 05:52:00,59.0,58.0,30.09,North,0,0.0,0.0,98,80.66,,,-99.99,,2013-07-13 10:52:00,
2013-07-13 06:02:00,59.0,59.0,30.10,North,0,0.0,0.0,99,80.66,,,-99.99,,2013-07-13 11:02:00,
2013-07-13 06:11:00,60.0,60.0,30.10,ESE,108,0.0,1.0,99,80.66,,,-99.99,,2013-07-13 11:11:00,
2013-07-13 06:22:00,60.0,60.0,30.10,North,0,0.0,0.0,99,80.66,,,-99.99,,2013-07-13 11:22:00,
2013-07-13 06:32:00,61.0,61.0,30.09,North,0,0.0,0.0,99,80.66,,,-99.99,,2013-07-13 11:32:00,
2013-07-13 06:42:00,62.0,61.0,30.09,East,94,0.0,2.0,98,80.66,,,-99.99,,2013-07-13 11:42:00,
2013-07-13 06:52:00,63.0,62.0,30.09,East,101,1.0,4.0,96,80.66,,,-99.99,,2013-07-13 11:52:00,
2013-07-13 07:02:00,63.0,62.0,30.09,East,94,1.0,5.0,96,80.66,,,-99.99,,2013-07-13 12:02:00,
2013-07-13 07:12:00,63.0,61.0,30.09,ESE,104,2.0,5.0,94,80.66,,,-99.99,,2013-07-13 12:12:00,
2013-07-13 07:22:00,64.0,62.0,30.09,East,96,1.0,5.0,93,80.66,,,-99.99,,2013-07-13 12:22:00,
2013-07-13 07:32:00,64.0,62.0,30.09,SE,145,2.0,5.0,93,80.66,,,-99.99,,2013-07-13 12:32:00,
2013-07-13 07:43:00,65.0,62.0,30.10,SE,129,1.0,8.0,91,80.66,,,-99.99,,2013-07-13 12:43:00,
2013-07-13 07:52:00,65.0,62.0,30.10,ENE,76,2.0,6.0,90,80.66,,,-99.99,,2013-07-13 12:52:00,
2013-07-13 08:01:00,65.0,62.0,30.10,SE,146,2.0,5.0,89,80.66,,,-99.99,,2013-07-13 13:01:00,
2013-07-13 08:12:00,66.0,62.0,30.11,East,79,2.0,6.0,88,80.66,,,-99.99,,2013-07-13 13:12:00,
2013-07-13 08:22:00,68.0,64.0,30.12,ESE,105,1.0,5.0,87,80.66,,,-99.99,,2013-07-13 13:22:00,
2013-07-13 08:32:00,68.0,63.0,30.12,East,97,3.0,8.0,84,80.66,,,-99.99,,2013-07-13 13:32:00,
2013-07-13 08:43:00,68.0,63.0,30.12,East,97,3.0,8.0,84,80.66,,,-99.99,,2013-07-13 13:43:00,
2013-07-13 08:53:00,69.0,63.0,30.10,East,91,4.0,7.0,81,80.66,,,-99.99,,2013-07-13 13:53:00,
2013-07-13 09:02:00,70.0,64.0,30.11,ESE,108,3.0,7.0,81,80.66,,,-99.99,,2013-07-13 14:02:00,
2013-07-13 09:11:00,70.0,64.0,30.11,ESE,108,3.0,7.0,81,80.66,,,-99.99,,2013-07-13 14:11:00,
2013-07-13 09:22:00,70.0,64.0,30.11,ESE,108,3.0,7.0,81,80.66,,,-99.99,,2013-07-13 14:22:00,
2013-07-13 09:32:00,72.0,64.0,30.13,North,0,2.0,6.0,76,80.66,,,-99.99,,2013-07-13 14:32:00,
2013-07-13 09:43:00,72.0,64.0,30.13,ENE,72,2.0,5.0,75,80.66,,,-99.99,,2013-07-13 14:43:00,
2013-07-13 09:53:00,73.0,65.0,30.13,ESE,103,2.0,5.0,75,80.66,,,-99.99,,2013-07-13 14:53:00,
2013-07-13 10:02:00,74.0,65.0,30.13,NNE,13,2.0,4.0,74,80.66,,,-99.99,,2013-07-13 15:02:00,
2013-07-13 10:12:00,75.0,65.0,30.11,ESE,105,2.0,7.0,70,80.66,,,-99.99,,2013-07-13 15:12:00,
2013-07-13 10:22:00,76.0,65.0,30.11,East,90,2.0,5.0,68,80.66,,,-99.99,,2013-07-13 15:22:00,
2013-07-13 10:33:00,76.0,65.0,30.11,NNE,31,3.0,6.0,68,80.66,,,-99.99,,2013-07-13 15:33:00,
2013-07-13 10:43:00,77.0,64.0,30.11,NE,56,3.0,7.0,64,80.66,,,-99.99,,2013-07-13 15:43:00,
2013-07-13 10:53:00,78.0,65.0,30.11,ESE,107,3.0,6.0,65,80.66,,,-99.99,,2013-07-13 15:53:00,
2013-07-13 11:02:00,78.0,63.0,30.11,East,93,5.0,8.0,61,80.66,,,-99.99,,2013-07-13 16:02:00,
2013-07-13 11:11:00,78.0,64.0,30.11,East,94,2.0,7.0,63,80.66,,,-99.99,,2013-07-13 16:11:00,
2013-07-13 11:22:00,79.0,64.0,30.11,NE,45,1.0,6.0,60,80.66,,,-99.99,,2013-07-13 16:22:00,
2013-07-13 11:33:00,80.0,62.0,30.11,ESE,104,2.0,8.0,55,80.66,,,-99.99,,2013-07-13 16:33:00,
2013-07-13 11:43:00,80.0,63.0,30.12,SE,135,1.0,6.0,57,80.66,,,-99.99,,2013-07-13 16:43:00,
2013-07-13 11:53:00,80.0,63.0,30.12,ENE,58,3.0,8.0,57,80.66,,,-99.99,,2013-07-13 16:53:00,
2013-07-13 12:01:00,80.0,63.0,30.12,East,87,3.0,8.0,57,80.66,,,-99.99,,2013-07-13 17:01:00,
2013-07-13 12:12:00,80.0,64.0,30.12,ENE,72,3.0,7.0,58,80.66,,,-99.99,,2013-07-13 17:12:00,
2013-07-13 12:22:00,80.0,63.0,30.11,East,80,4.0,10.0,56,80.66,,,-99.99,,2013-07-13 17:22:00,
2013-07-13 12:33:00,80.0,63.0,30.11,East,93,3.0,8.0,57,80.66,,,-99.99,,2013-07-13 17:33:00,
2013-07-13 12:43:00,81.0,61.0,30.11,East,98,2.0,6.0,51,80.66,,,-99.99,,2013-07-13 17:43:00,
2013-07-13 12:52:00,81.0,61.0,30.10,ENE,73,4.0,11.0,51,80.66,,,-99.99,,2013-07-13 17:52:00,
2013-07-13 13:01:00,81.0,62.0,30.10,ENE,63,6.0,10.0,53,80.66,,,-99.99,,2013-07-13 18:01:00,
2013-07-13 13:11:00,81.0,63.0,30.10,SE,135,2.0,8.0,55,80.66,,,-99.99,,2013-07-13 18:11:00,
2013-07-13 13:22:00,82.0,64.0,30.10,NE,37,3.0,10.0,54,80.66,,,-99.99,,2013-07-13 18:22:00,
2013-07-13 13:32:00,82.0,61.0,30.10,ENE,75,4.0,9.0,49,80.66,,,-99.99,,2013-07-13 18:32:00,
2013-07-13 13:44:00,82.0,61.0,30.09,ENE,69,4.0,9.0,49,80.66,,,-99.99,,2013-07-13 18:44:00,
2013-07-13 13:53:00,81.0,63.0,30.09,ENE,77,4.0,9.0,54,80.66,,,-99.99,,2013-07-13 18:53:00,
2013-07-13 14:02:00,80.0,62.0,30.09,East,94,5.0,10.0,55,80.66,,,-99.99,,2013-07-13 19:02:00,
2013-07-13 14:11:00,81.0,64.0,30.09,ESE,105,3.0,9.0,56,80.66,,,-99.99,,2013-07-13 19:11:00,
2013-07-13 14:22:00,82.0,63.0,30.09,SSE,162,3.0,9.0,52,80.66,,,-99.99,,2013-07-13 19:22:00,
2013-07-13 14:32:00,82.0,63.0,30.08,ESE,121,2.0,7.0,52,80.66,,,-99.99,,2013-07-13 19:32:00,
2013-07-13 14:44:00,82.0,63.0,30.08,East,91,6.0,12.0,52,80.66,,,-99.99,,2013-07-13 19:44:00,
2013-07-13 14:52:00,82.0,62.0,30.08,SE,146,3.0,9.0,51,80.66,,,-99.99,,2013-07-13 19:52:00,
2013-07-13 15:01:00,83.0,65.0,30.07,SSE,156,2.0,7.0,55,80.66,,,-99.99,,2013-07-13 20:01:00,
2013-07-13 15:11:00,83.0,64.0,30.07,East,94,4.0,9.0,53,80.66,,,-99.99,,2013-07-13 20:11:00,
2013-07-13 15:22:00,83.0,63.0,30.07,ESE,117,5.0,10.0,51,80.66,,,-99.99,,2013-07-13 20:22:00,
2013-07-13 15:33:00,84.0,63.0,30.06,SSE,163,2.0,7.0,50,80.66,,,-99.99,,2013-07-13 20:33:00,
2013-07-13 15:43:00,83.0,64.0,30.07,East,89,6.0,13.0,52,80.66,,,-99.99,,2013-07-13 20:43:00,
2013-07-13 15:52:00,83.0,63.0,30.06,ESE,105,4.0,9.0,51,80.66,,,-99.99,,2013-07-13 20:52:00,
2013-07-13 16:02:00,84.0,63.0,30.06,East,89,2.0,10.0,50,80.66,,,-99.99,,2013-07-13 21:02:00,
2013-07-13 16:12:00,85.0,64.0,30.06,ESE,118,3.0,10.0,50,80.66,,,-99.99,,2013-07-13 21:12:00,
2013-07-13 16:22:00,85.0,64.0,30.06,ESE,121,3.0,9.0,50,80.66,,,-99.99,,2013-07-13 21:22:00,
2013-07-13 16:32:00,84.0,62.0,30.06,ESE,115,5.0,12.0,47,80.66,,,-99.99,,2013-07-13 21:32:00,
2013-07-13 16:42:00,84.0,63.0,30.06,SE,146,2.0,7.0,49,80.66,,,-99.99,,2013-07-13 21:42:00,
2013-07-13 16:53:00,84.0,64.0,30.06,East,101,3.0,8.0,51,80.66,,,-99.99,,2013-07-13 21:53:00,
2013-07-13 17:01:00,84.0,63.0,30.06,SE,135,3.0,8.0,49,80.66,,,-99.99,,2013-07-13 22:01:00,
2013-07-13 17:12:00,84.0,63.0,30.06,SE,135,3.0,8.0,49,80.66,,,-99.99,,2013-07-13 22:12:00,
2013-07-13 17:22:00,85.0,64.0,30.06,ESE,117,4.0,9.0,49,80.66,,,-99.99,,2013-07-13 22:22:00,
2013-07-13 17:32:00,84.0,63.0,30.06,East,79,5.0,11.0,50,80.66,,,-99.99,,2013-07-13 22:32:00,
2013-07-13 17:43:00,83.0,63.0,30.06,East,101,3.0,8.0,51,80.66,,,-99.99,,2013-07-13 22:43:00,
2013-07-13 17:53:00,83.0,63.0,30.06,SE,124,5.0,10.0,51,80.66,,,-99.99,,2013-07-13 22:53:00,
2013-07-13 18:01:00,83.0,64.0,30.06,ENE,59,3.0,8.0,52,80.66,,,-99.99,,2013-07-13 23:01:00,
2013-07-13 18:11:00,83.0,63.0,30.06,East,83,4.0,11.0,51,80.66,,,-99.99,,2013-07-13 23:11:00,
2013-07-13 18:22:00,83.0,63.0,30.06,SSE,153,3.0,6.0,51,80.66,,,-99.99,,2013-07-13 23:22:00,
2013-07-13 18:32:00,83.0,64.0,30.06,SE,136,2.0,8.0,52,80.66,,,-99.99,,2013-07-13 23:32:00,
2013-07-13 18:42:00,82.0,64.0,30.06,East,90,2.0,5.0,55,80.66,,,-99.99,,2013-07-13 23:42:00,
2013-07-13 18:53:00,82.0,65.0,30.06,SSW,195,2.0,4.0,56,80.66,,,-99.99,,2013-07-13 23:53:00,
2013-07-13 19:01:00,82.0,65.0,30.06,ENE,76,1.0,6.0,56,80.66,,,-99.99,,2013-07-14 00:01:00,
2013-07-13 19:11:00,81.0,65.0,30.06,ENE,58,2.0,5.0,58,80.66,,,-99.99,,2013-07-14 00:11:00,
2013-07-13 19:21:00,80.0,64.0,30.06,East,97,1.0,5.0,59,80.66,,,-99.99,,2013-07-14 00:21:00,
2013-07-13 19:33:00,80.0,65.0,30.06,East,90,1.0,5.0,60,80.66,,,-99.99,,2013-07-14 00:33:00,
2013-07-13 19:42:00,80.0,65.0,30.06,East,101,2.0,4.0,60,80.66,,,-99.99,,2013-07-14 00:42:00,
2013-07-13 19:53:00,80.0,65.0,30.06,SE,141,2.0,6.0,61,80.66,,,-99.99,,2013-07-14 00:53:00,
2013-07-13 20:02:00,79.0,65.0,30.06,SE,136,0.0,3.0,62,80.66,,,-99.99,,2013-07-14 01:02:00,
2013-07-13 20:11:00,79.0,65.0,30.06,SE,136,0.0,3.0,62,80.66,,,-99.99,,2013-07-14 01:11:00,
2013-07-13 20:22:00,79.0,65.0,30.07,ESE,103,1.0,3.0,63,80.66,,,-99.99,,2013-07-14 01:22:00,
2013-07-13 20:32:00,79.0,66.0,30.07,North,0,0.0,0.0,65,80.66,,,-99.99,,2013-07-14 01:32:00,
2013-07-13 20:43:00,78.0,66.0,30.07,ESE,108,1.0,3.0,66,80.66,,,-99.99,,2013-07-14 01:43:00,
2013-07-13 20:52:00,78.0,66.0,30.07,North,0,0.0,0.0,66,80.66,,,-99.99,,2013-07-14 01:52:00,
2013-07-13 21:01:00,78.0,66.0,30.08,North,0,0.0,0.0,67,80.66,,,-99.99,,2013-07-14 02:01:00,
2013-07-13 21:11:00,77.0,66.0,30.08,North,0,0.0,0.0,68,80.66,,,-99.99,,2013-07-14 02:11:00,
2013-07-13 21:22:00,76.0,65.0,30.08,North,0,0.0,0.0,70,80.66,,,-99.99,,2013-07-14 02:22:00,
2013-07-13 21:32:00,76.0,66.0,30.08,North,0,0.0,0.0,71,80.66,,,-99.99,,2013-07-14 02:32:00,
2013-07-13 21:43:00,75.0,66.0,30.09,North,0,0.0,0.0,73,80.66,,,-99.99,,2013-07-14 02:43:00,
2013-07-13 21:53:00,75.0,67.0,30.09,North,0,0.0,0.0,75,80.66,,,-99.99,,2013-07-14 02:53:00,
2013-07-13 22:01:00,73.0,66.0,30.09,ESE,107,0.0,2.0,79,80.66,,,-99.99,,2013-07-14 03:01:00,
2013-07-13 22:11:00,73.0,66.0,30.09,SE,143,0.0,1.0,79,80.66,,,-99.99,,2013-07-14 03:11:00,
2013-07-13 22:22:00,73.0,66.0,30.09,ENE,59,0.0,3.0,78,80.66,,,-99.99,,2013-07-14 03:22:00,
2013-07-13 22:32:00,73.0,66.0,30.09,North,0,0.0,0.0,78,80.66,,,-99.99,,2013-07-14 03:32:00,
2013-07-13 22:43:00,73.0,65.0,30.09,NNE,17,0.0,2.0,77,80.66,,,-99.99,,2013-07-14 03:43:00,
2013-07-13 22:53:00,73.0,66.0,30.09,SE,129,0.0,1.0,78,80.66,,,-99.99,,2013-07-14 03:53:00,
2013-07-13 23:02:00,73.0,66.0,30.09,South,184,0.0,2.0,79,80.66,,,-99.99,,2013-07-14 04:02:00,
2013-07-13 23:11:00,72.0,65.0,30.09,SSE,155,1.0,6.0,79,80.66,,,-99.99,,2013-07-14 04:11:00,
2013-07-13 23:22:00,73.0,65.0,30.09,SE,125,1.0,5.0,77,80.66,,,-99.99,,2013-07-14 04:22:00,
2013-07-13 23:32:00,73.0,65.0,30.09,SSE,160,0.0,2.0,76,80.66,,,-99.99,,2013-07-14 04:32:00,
2013-07-13 23:42:00,73.0,65.0,30.09,SE,141,1.0,4.0,75,80.66,,,-99.99,,2013-07-14 04:42:00,
2013-07-13 23:53:00,73.0,65.0,30.10,SE,139,1.0,5.0,75,80.66,,,-99.99,,2013-07-14 04:53:00,